createdAt,value
2019-06-26T00:01:54.057Z,99447.35
2019-06-26T00:04:22.553Z,99444.69
2019-06-26T00:06:51.081Z,99443.37
2019-06-26T00:09:19.644Z,99442.30
2019-06-26T00:11:48.125Z,99445.57
2019-06-26T00:14:16.603Z,99443.34
2019-06-26T00:16:45.126Z,99440.05
2019-06-26T00:19:13.596Z,99442.23
2019-06-26T00:21:42.104Z,99446.02
2019-06-26T00:24:10.590Z,99438.95
2019-06-26T00:26:39.094Z,99439.23
2019-06-26T00:29:07.584Z,99439.69
2019-06-26T00:31:36.091Z,99440.98
2019-06-26T00:34:04.641Z,99439.59
2019-06-26T00:36:33.146Z,99440.23
2019-06-26T00:39:01.632Z,99437.98
2019-06-26T00:41:30.140Z,99443.11
2019-06-26T00:43:58.630Z,99443.43
2019-06-26T00:46:27.132Z,99440.23
2019-06-26T00:48:55.616Z,99441.75
2019-06-26T00:51:24.266Z,99431.73
2019-06-26T00:53:52.750Z,99434.77
2019-06-26T00:56:21.241Z,99433.09
2019-06-26T00:58:49.723Z,99428.59
2019-06-26T01:01:18.235Z,99435.61
2019-06-26T01:03:48.477Z,99435.27
2019-06-26T01:06:34.797Z,99433.70
2019-06-26T01:09:03.368Z,99430.16
2019-06-26T01:11:31.882Z,99433.06
2019-06-26T01:14:00.336Z,99434.95
2019-06-26T01:16:28.848Z,99435.36
2019-06-26T01:18:57.326Z,99435.80
2019-06-26T01:21:26.000Z,99440.75
2019-06-26T01:23:54.482Z,99441.61
2019-06-26T01:26:22.986Z,99436.97
2019-06-26T01:28:51.460Z,99437.19
2019-06-26T01:31:20.146Z,99432.02
2019-06-26T01:33:48.700Z,99432.77
2019-06-26T01:36:17.210Z,99426.11
2019-06-26T01:38:45.692Z,99429.09
2019-06-26T01:41:14.250Z,99423.81
2019-06-26T01:43:42.687Z,99423.25
2019-06-26T01:46:11.205Z,99423.81
2019-06-26T01:48:39.680Z,99418.51
2019-06-26T01:51:08.194Z,99421.37
2019-06-26T01:53:36.680Z,99422.56
2019-06-26T01:56:05.183Z,99422.05
2019-06-26T01:58:33.672Z,99421.27
2019-06-26T02:01:02.183Z,99413.45
2019-06-26T02:03:30.667Z,99422.70
2019-06-26T02:05:59.178Z,99409.86
2019-06-26T02:08:27.657Z,99418.49
2019-06-26T02:10:56.168Z,99411.83
2019-06-26T02:13:24.654Z,99412.48
2019-06-26T02:15:53.154Z,99417.91
2019-06-26T02:18:34.797Z,99419.06
2019-06-26T02:21:03.312Z,99418.62
2019-06-26T02:23:31.789Z,99419.20
2019-06-26T02:26:00.261Z,99419.45
2019-06-26T02:28:28.837Z,99419.48
2019-06-26T02:30:57.316Z,99418.75
2019-06-26T02:33:25.816Z,99413.95
2019-06-26T02:35:54.299Z,99411.84
2019-06-26T02:38:22.805Z,99413.30
2019-06-26T02:40:51.284Z,99413.34
2019-06-26T02:43:19.792Z,99410.24
2019-06-26T02:45:48.303Z,99417.16
2019-06-26T02:48:16.779Z,99414.06
2019-06-26T02:50:45.263Z,99413.05
2019-06-26T02:53:13.772Z,99413.49
2019-06-26T02:55:42.778Z,99409.92
2019-06-26T02:58:11.283Z,99405.09
2019-06-26T03:00:39.761Z,99416.00
2019-06-26T03:03:08.275Z,99409.30
2019-06-26T03:05:36.775Z,99412.16
2019-06-26T03:08:05.329Z,99401.22
2019-06-26T03:10:33.839Z,99398.16
2019-06-26T03:13:02.350Z,99397.97
2019-06-26T03:15:30.826Z,99403.80
2019-06-26T03:17:59.348Z,99401.83
2019-06-26T03:20:30.868Z,99407.11
2019-06-26T03:22:59.415Z,99409.66
2019-06-26T03:25:27.864Z,99397.97
2019-06-26T03:27:56.362Z,99397.95
2019-06-26T03:30:24.921Z,99398.43
2019-06-26T03:32:53.435Z,99393.80
2019-06-26T03:35:21.913Z,99392.77
2019-06-26T03:37:50.422Z,99392.86
2019-06-26T03:40:19.061Z,99391.67
2019-06-26T03:42:47.578Z,99391.73
2019-06-26T03:45:25.619Z,99389.80
2019-06-26T03:47:46.402Z,99385.58
2019-06-26T03:50:15.020Z,99386.88
2019-06-26T03:52:43.527Z,99379.38
2019-06-26T03:55:12.186Z,99382.79
2019-06-26T03:57:40.754Z,99384.70
2019-06-26T04:00:10.106Z,99378.17
2019-06-26T04:02:38.675Z,99384.09
2019-06-26T04:05:08.010Z,99379.72
2019-06-26T04:07:36.503Z,99368.16
2019-06-26T04:10:08.327Z,99378.23
2019-06-26T04:12:36.804Z,99379.61
2019-06-26T04:15:07.349Z,99374.63
2019-06-26T04:17:35.956Z,99375.93
2019-06-26T04:20:08.900Z,99383.26
2019-06-26T04:22:37.391Z,99377.16
2019-06-26T04:25:09.200Z,99378.65
2019-06-26T04:27:37.690Z,99380.42
2019-06-26T04:30:10.597Z,99378.74
2019-06-26T04:32:39.268Z,99385.80
2019-06-26T04:35:08.016Z,99386.37
2019-06-26T04:37:36.497Z,99385.66
2019-06-26T04:40:07.239Z,99387.61
2019-06-26T04:42:35.722Z,99389.30
2019-06-26T04:45:06.656Z,99392.50
2019-06-26T04:47:35.402Z,99396.58
2019-06-26T04:50:09.260Z,99386.92
2019-06-26T04:52:37.794Z,99392.72
2019-06-26T04:55:10.333Z,99390.62
2019-06-26T04:57:39.289Z,99385.83
2019-06-26T05:00:09.323Z,99385.63
2019-06-26T05:02:37.937Z,99385.24
2019-06-26T05:05:07.775Z,99383.36
2019-06-26T05:07:36.249Z,99383.19
2019-06-26T05:10:07.092Z,99376.08
2019-06-26T05:12:35.572Z,99381.10
2019-06-26T05:15:07.135Z,99381.41
2019-06-26T05:17:35.615Z,99374.47
2019-06-26T05:20:09.663Z,99372.12
2019-06-26T05:22:38.140Z,99378.66
2019-06-26T05:25:08.280Z,99376.98
2019-06-26T05:27:36.772Z,99373.84
2019-06-26T05:30:08.870Z,99381.77
2019-06-26T05:32:37.355Z,99375.05
2019-06-26T05:35:07.808Z,99372.98
2019-06-26T05:37:36.274Z,99374.87
2019-06-26T05:40:12.833Z,99374.23
2019-06-26T05:42:41.274Z,99372.83
2019-06-26T05:45:10.846Z,99377.23
2019-06-26T05:47:39.371Z,99380.90
2019-06-26T05:50:08.613Z,99386.91
2019-06-26T05:52:37.164Z,99382.96
2019-06-26T05:55:07.303Z,99380.45
2019-06-26T05:57:35.775Z,99383.98
2019-06-26T06:00:07.330Z,99386.77
2019-06-26T06:02:35.810Z,99388.23
2019-06-26T06:05:06.160Z,99391.33
2019-06-26T06:07:34.669Z,99384.28
2019-06-26T06:10:03.730Z,99391.33
2019-06-26T06:12:32.199Z,99387.69
2019-06-26T06:15:00.677Z,99393.14
2019-06-26T06:17:29.182Z,99393.98
2019-06-26T06:19:57.688Z,99395.47
2019-06-26T06:22:27.546Z,99396.36
2019-06-26T06:24:56.273Z,99398.20
2019-06-26T06:27:24.739Z,99407.86
2019-06-26T06:29:53.291Z,99401.13
2019-06-26T06:32:21.794Z,99399.59
2019-06-26T06:34:50.309Z,99403.49
2019-06-26T06:37:18.794Z,99391.89
2019-06-26T06:39:47.371Z,99396.05
2019-06-26T06:42:15.852Z,99398.70
2019-06-26T06:44:44.352Z,99390.76
2019-06-26T06:47:12.845Z,99389.58
2019-06-26T06:49:41.346Z,99389.10
2019-06-26T06:52:09.832Z,99397.64
2019-06-26T06:54:38.337Z,99391.03
2019-06-26T06:57:06.820Z,99397.55
2019-06-26T06:59:35.316Z,99409.86
2019-06-26T07:02:03.817Z,99395.78
2019-06-26T07:04:32.305Z,99391.80
2019-06-26T07:07:00.785Z,99401.38
2019-06-26T07:09:29.285Z,99406.12
2019-06-26T07:11:57.764Z,99410.66
2019-06-26T07:14:26.271Z,99404.86
2019-06-26T07:16:54.749Z,99407.47
2019-06-26T07:19:23.296Z,99413.19
2019-06-26T07:21:51.801Z,99406.42
2019-06-26T07:24:20.333Z,99415.93
2019-06-26T07:26:48.785Z,99416.39
2019-06-26T07:29:17.263Z,99415.83
2019-06-26T07:31:45.771Z,99422.47
2019-06-26T07:34:14.258Z,99417.77
2019-06-26T07:36:42.764Z,99421.08
2019-06-26T07:39:11.243Z,99418.19
2019-06-26T07:41:39.756Z,99415.16
2019-06-26T07:44:08.231Z,99426.36
2019-06-26T07:46:36.758Z,99427.72
2019-06-26T07:49:05.283Z,99420.76
2019-06-26T07:51:33.868Z,99425.33
2019-06-26T07:54:02.353Z,99420.22
2019-06-26T07:56:30.869Z,99419.63
2019-06-26T07:58:59.364Z,99418.89
2019-06-26T08:01:27.927Z,99428.34
2019-06-26T08:03:56.405Z,99420.45
2019-06-26T08:06:24.913Z,99425.12
2019-06-26T08:08:53.394Z,99423.55
2019-06-26T08:11:21.962Z,99425.58
2019-06-26T08:13:50.456Z,99419.59
2019-06-26T08:16:18.957Z,99428.97
2019-06-26T08:18:47.438Z,99419.27
2019-06-26T08:21:15.950Z,99422.71
2019-06-26T08:23:44.416Z,99421.32
2019-06-26T08:26:12.993Z,99423.16
2019-06-26T08:28:41.482Z,99433.92
2019-06-26T08:31:10.069Z,99424.66
2019-06-26T08:33:38.605Z,99430.37
2019-06-26T08:36:07.104Z,99442.84
2019-06-26T08:38:35.588Z,99433.95
2019-06-26T08:41:04.089Z,99431.91
2019-06-26T08:43:32.567Z,99428.46
2019-06-26T08:46:01.109Z,99429.03
2019-06-26T08:48:39.654Z,99431.41
2019-06-26T08:50:59.835Z,99433.35
2019-06-26T08:53:28.308Z,99430.19
2019-06-26T08:55:56.815Z,99431.33
2019-06-26T08:58:25.279Z,99425.64
2019-06-26T09:00:53.801Z,99433.22
2019-06-26T09:03:22.306Z,99427.57
2019-06-26T09:05:50.812Z,99436.08
2019-06-26T09:08:19.420Z,99433.23
2019-06-26T09:10:48.051Z,99430.17
2019-06-26T09:13:16.553Z,99431.50
2019-06-26T09:15:49.390Z,99428.19
2019-06-26T09:18:15.266Z,99428.92
2019-06-26T09:20:43.845Z,99420.30
2019-06-26T09:23:12.324Z,99416.72
2019-06-26T09:25:40.796Z,99419.08
2019-06-26T09:28:09.301Z,99416.42
2019-06-26T09:30:37.776Z,99416.55
2019-06-26T09:33:06.278Z,99418.52
2019-06-26T09:35:34.758Z,99420.34
2019-06-26T09:38:03.271Z,99414.98
2019-06-26T09:40:32.267Z,99414.05
2019-06-26T09:43:00.928Z,99410.06
2019-06-26T09:45:29.479Z,99417.20
2019-06-26T09:47:57.991Z,99412.98
2019-06-26T09:50:26.463Z,99417.81
2019-06-26T09:52:54.959Z,99411.11
2019-06-26T09:55:23.495Z,99410.37
2019-06-26T09:57:51.986Z,99415.48
2019-06-26T10:00:22.713Z,99417.01
2019-06-26T10:02:51.193Z,99423.28
2019-06-26T10:05:20.045Z,99414.44
2019-06-26T10:07:48.719Z,99417.95
2019-06-26T10:10:17.427Z,99413.02
2019-06-26T10:12:45.928Z,99408.84
2019-06-26T10:15:15.741Z,99419.25
2019-06-26T10:17:44.468Z,99407.83
2019-06-26T10:20:13.088Z,99416.87
2019-06-26T10:22:41.578Z,99415.51
2019-06-26T10:25:11.551Z,99416.98
2019-06-26T10:27:40.444Z,99412.44
2019-06-26T10:30:09.451Z,99417.19
2019-06-26T10:32:37.950Z,99411.45
2019-06-26T10:35:06.665Z,99407.65
2019-06-26T10:37:35.148Z,99410.76
2019-06-26T10:40:04.058Z,99407.04
2019-06-26T10:42:32.543Z,99411.28
2019-06-26T10:45:01.028Z,99415.53
2019-06-26T10:47:29.629Z,99417.58
2019-06-26T10:49:58.072Z,99405.30
2019-06-26T10:52:26.568Z,99408.32
2019-06-26T10:54:55.033Z,99409.84
2019-06-26T10:57:23.673Z,99405.85
2019-06-26T10:59:55.552Z,99408.69
2019-06-26T11:02:22.434Z,99405.87
2019-06-26T11:04:50.958Z,99414.09
2019-06-26T11:07:19.505Z,99409.43
2019-06-26T11:09:48.030Z,99409.91
2019-06-26T11:12:16.515Z,99403.08
2019-06-26T11:14:45.067Z,99399.78
2019-06-26T11:17:13.535Z,99391.32
2019-06-26T11:19:44.241Z,99390.21
2019-06-26T11:22:12.239Z,99382.89
2019-06-26T11:24:40.750Z,99377.63
2019-06-26T11:27:09.287Z,99378.58
2019-06-26T11:29:37.785Z,99373.69
2019-06-26T11:32:09.390Z,99377.34
2019-06-26T11:34:36.474Z,99373.03
2019-06-26T11:37:04.948Z,99369.36
2019-06-26T11:39:33.435Z,99366.34
2019-06-26T11:42:01.902Z,99366.61
2019-06-26T11:44:30.403Z,99361.95
2019-06-26T11:46:58.941Z,99364.97
2019-06-26T11:49:27.443Z,99353.16
2019-06-26T11:51:55.911Z,99362.16
2019-06-26T11:54:24.422Z,99350.77
2019-06-26T11:56:52.872Z,99353.63
2019-06-26T11:59:21.369Z,99360.59
2019-06-26T12:01:49.873Z,99350.98
2019-06-26T12:04:18.376Z,99354.71
2019-06-26T12:06:46.850Z,99351.20
2019-06-26T12:09:15.346Z,99340.50
2019-06-26T12:11:43.837Z,99334.41
2019-06-26T12:14:12.683Z,99345.05
2019-06-26T12:16:41.158Z,99342.95
2019-06-26T12:19:09.653Z,99344.64
2019-06-26T12:21:38.136Z,99346.36
2019-06-26T12:24:06.611Z,99344.92
2019-06-26T12:26:35.163Z,99336.05
2019-06-26T12:29:03.727Z,99336.30
2019-06-26T12:31:32.221Z,99328.42
2019-06-26T12:34:00.791Z,99338.95
2019-06-26T12:36:29.261Z,99331.52
2019-06-26T12:38:57.763Z,99333.19
2019-06-26T12:41:26.222Z,99331.70
2019-06-26T12:43:54.733Z,99328.25
2019-06-26T12:46:23.200Z,99328.25
2019-06-26T12:48:51.702Z,99326.61
2019-06-26T12:51:20.174Z,99324.41
2019-06-26T12:53:48.739Z,99324.83
2019-06-26T12:56:17.205Z,99324.83
2019-06-26T12:58:45.694Z,99307.33
2019-06-26T13:01:14.175Z,99311.17
2019-06-26T13:03:42.782Z,99311.17
2019-06-26T13:06:11.219Z,99314.94
2019-06-26T13:08:39.697Z,99315.49
2019-06-26T13:11:08.208Z,99305.81
2019-06-26T13:13:36.731Z,99315.25
2019-06-26T13:16:05.301Z,99307.44
2019-06-26T13:18:33.761Z,99311.77
2019-06-26T13:21:04.998Z,99307.65
2019-06-26T13:23:32.447Z,99300.26
2019-06-26T13:26:00.929Z,99304.76
2019-06-26T13:28:29.400Z,99301.05
2019-06-26T13:30:57.903Z,99302.03
2019-06-26T13:33:26.398Z,99301.25
2019-06-26T13:35:55.673Z,99303.41
2019-06-26T13:38:27.100Z,99295.80
2019-06-26T13:40:54.431Z,99290.44
2019-06-26T13:43:22.889Z,99299.15
2019-06-26T13:45:51.387Z,99296.45
2019-06-26T13:48:19.862Z,99298.47
2019-06-26T13:50:48.381Z,99293.81
2019-06-26T13:53:16.836Z,99297.73
2019-06-26T13:55:45.330Z,99286.92
2019-06-26T13:58:13.806Z,99287.08
2019-06-26T14:00:42.315Z,99286.28
2019-06-26T14:03:10.784Z,99281.02
2019-06-26T14:05:39.270Z,99280.45
2019-06-26T14:08:07.749Z,99278.88
2019-06-26T14:10:36.270Z,99272.13
2019-06-26T14:13:04.742Z,99270.70
2019-06-26T14:15:33.308Z,99270.91
2019-06-26T14:18:01.781Z,99266.26
2019-06-26T14:20:30.270Z,99267.92
2019-06-26T14:22:58.758Z,99269.05
2019-06-26T14:25:27.240Z,99256.73
2019-06-26T14:27:55.708Z,99258.27
2019-06-26T14:30:27.699Z,99261.55
2019-06-26T14:32:54.540Z,99257.45
2019-06-26T14:35:23.052Z,99259.30
2019-06-26T14:37:51.517Z,99258.09
2019-06-26T14:40:20.403Z,99252.88
2019-06-26T14:42:49.112Z,99253.36
2019-06-26T14:45:17.654Z,99251.86
2019-06-26T14:47:46.125Z,99248.94
2019-06-26T14:50:14.769Z,99252.47
2019-06-26T14:52:45.869Z,99245.89
2019-06-26T14:55:13.996Z,99238.93
2019-06-26T14:57:42.457Z,99240.95
2019-06-26T15:00:11.441Z,99237.86
2019-06-26T15:02:39.955Z,99236.75
2019-06-26T15:05:09.886Z,99230.47
2019-06-26T15:07:38.384Z,99230.47
2019-06-26T15:10:10.008Z,99225.83
2019-06-26T15:12:38.507Z,99216.37
2019-06-26T15:15:07.802Z,99217.28
2019-06-26T15:17:36.503Z,99215.21
2019-06-26T15:20:06.418Z,99210.81
2019-06-26T15:22:34.917Z,99212.19
2019-06-26T15:25:04.738Z,99220.61
2019-06-26T15:27:33.238Z,99208.48
2019-06-26T15:30:01.715Z,99205.11
2019-06-26T15:32:30.207Z,99202.78
2019-06-26T15:34:58.693Z,99189.59
2019-06-26T15:37:27.194Z,99187.39
2019-06-26T15:39:55.662Z,99194.34
2019-06-26T15:42:24.159Z,99193.50
2019-06-26T15:44:52.687Z,99189.55
2019-06-26T15:47:21.223Z,99185.35
2019-06-26T15:49:49.693Z,99186.02
2019-06-26T15:52:18.195Z,99187.49
2019-06-26T15:54:46.674Z,99181.36
2019-06-26T15:57:15.174Z,99176.45
2019-06-26T15:59:43.650Z,99188.06
2019-06-26T16:02:12.145Z,99175.66
2019-06-26T16:04:40.693Z,99178.17
2019-06-26T16:07:09.209Z,99176.55
2019-06-26T16:09:37.701Z,99179.66
2019-06-26T16:12:06.271Z,99175.41
2019-06-26T16:14:34.744Z,99175.30
2019-06-26T16:17:10.793Z,99168.25
2019-06-26T16:19:39.280Z,99171.53
2019-06-26T16:22:07.798Z,99173.49
2019-06-26T16:24:36.254Z,99172.34
2019-06-26T16:27:04.749Z,99165.69
2019-06-26T16:29:33.228Z,99167.38
2019-06-26T16:32:01.744Z,99160.96
2019-06-26T16:34:30.216Z,99161.06
2019-06-26T16:36:58.728Z,99152.82
2019-06-26T16:39:27.209Z,99158.20
2019-06-26T16:41:55.712Z,99162.98
2019-06-26T16:44:24.189Z,99159.95
2019-06-26T16:46:52.692Z,99156.09
2019-06-26T16:49:21.174Z,99160.28
2019-06-26T16:51:49.680Z,99147.45
2019-06-26T16:54:18.159Z,99153.16
2019-06-26T16:56:46.654Z,99151.12
2019-06-26T16:59:15.133Z,99146.16
2019-06-26T17:01:43.685Z,99148.48
2019-06-26T17:04:12.196Z,99146.11
2019-06-26T17:06:40.670Z,99146.81
2019-06-26T17:09:09.712Z,99145.03
2019-06-26T17:11:38.282Z,99142.73
2019-06-26T17:14:06.867Z,99136.69
2019-06-26T17:16:35.346Z,99142.16
2019-06-26T17:19:03.858Z,99134.33
2019-06-26T17:21:32.539Z,99131.14
2019-06-26T17:24:01.092Z,99131.30
2019-06-26T17:26:29.566Z,99136.45
2019-06-26T17:28:58.074Z,99136.53
2019-06-26T17:31:28.199Z,99134.54
2019-06-26T17:33:56.696Z,99129.99
2019-06-26T17:36:28.669Z,99132.23
2019-06-26T17:38:55.393Z,99128.95
2019-06-26T17:41:23.865Z,99137.39
2019-06-26T17:43:52.369Z,99135.55
2019-06-26T17:46:20.836Z,99130.36
2019-06-26T17:48:49.338Z,99131.23
2019-06-26T17:51:17.813Z,99133.66
2019-06-26T17:53:46.312Z,99133.31
2019-06-26T17:56:14.791Z,99126.98
2019-06-26T17:58:43.296Z,99132.17
2019-06-26T18:01:11.844Z,99136.55
2019-06-26T18:03:40.341Z,99137.61
2019-06-26T18:06:08.822Z,99138.88
2019-06-26T18:08:37.991Z,99140.51
2019-06-26T18:11:06.461Z,99136.34
2019-06-26T18:13:34.969Z,99141.05
2019-06-26T18:16:03.453Z,99149.13
2019-06-26T18:18:31.960Z,99143.46
2019-06-26T18:21:00.435Z,99144.66
2019-06-26T18:23:37.555Z,99147.08
2019-06-26T18:26:12.529Z,99144.00
2019-06-26T18:28:29.366Z,99149.18
2019-06-26T18:30:57.847Z,99144.55
2019-06-26T18:33:26.345Z,99139.19
2019-06-26T18:35:54.822Z,99139.72
2019-06-26T18:38:23.315Z,99142.77
2019-06-26T18:40:51.877Z,99139.91
2019-06-26T18:43:20.375Z,99142.62
2019-06-26T18:45:48.851Z,99147.95
2019-06-26T18:48:17.359Z,99146.25
2019-06-26T18:50:45.841Z,99144.28
2019-06-26T18:53:14.322Z,99147.29
2019-06-26T18:55:42.829Z,99144.73
2019-06-26T18:58:11.339Z,99151.06
2019-06-26T19:00:39.857Z,99150.58
2019-06-26T19:03:08.311Z,99147.53
2019-06-26T19:05:36.808Z,99151.80
2019-06-26T19:08:05.441Z,99152.44
2019-06-26T19:10:33.944Z,99154.97
2019-06-26T19:13:02.416Z,99161.95
2019-06-26T19:15:30.924Z,99158.92
2019-06-26T19:17:59.411Z,99164.98
2019-06-26T19:20:27.924Z,99166.23
2019-06-26T19:22:56.393Z,99169.38
2019-06-26T19:25:24.896Z,99169.94
2019-06-26T19:27:53.379Z,99168.14
2019-06-26T19:30:22.021Z,99173.54
2019-06-26T19:32:50.522Z,99169.81
2019-06-26T19:35:20.017Z,99173.98
2019-06-26T19:37:48.924Z,99168.02
2019-06-26T19:40:17.585Z,99182.95
2019-06-26T19:42:46.051Z,99179.49
2019-06-26T19:45:14.999Z,99180.63
2019-06-26T19:47:43.749Z,99179.08
2019-06-26T19:50:12.798Z,99183.99
2019-06-26T19:52:41.273Z,99180.34
2019-06-26T19:55:10.419Z,99188.67
2019-06-26T19:57:38.905Z,99186.95
2019-06-26T20:00:09.539Z,99186.72
2019-06-26T20:02:38.090Z,99180.75
2019-06-26T20:05:07.534Z,99178.00
2019-06-26T20:07:36.011Z,99188.97
2019-06-26T20:10:06.362Z,99191.45
2019-06-26T20:12:35.339Z,99187.04
2019-06-26T20:15:05.704Z,99187.19
2019-06-26T20:17:34.186Z,99185.52
2019-06-26T20:20:03.287Z,99180.88
2019-06-26T20:22:31.817Z,99178.20
2019-06-26T20:25:00.394Z,99190.38
2019-06-26T20:27:28.868Z,99188.62
2019-06-26T20:29:57.375Z,99187.98
2019-06-26T20:32:25.852Z,99192.44
2019-06-26T20:34:54.353Z,99188.16
2019-06-26T20:37:22.835Z,99190.69
2019-06-26T20:39:51.341Z,99188.40
2019-06-26T20:42:19.812Z,99191.16
2019-06-26T20:44:48.304Z,99189.80
2019-06-26T20:47:16.802Z,99195.44
2019-06-26T20:49:53.136Z,99199.86
2019-06-26T20:52:15.514Z,99196.31
2019-06-26T20:54:56.755Z,99189.88
2019-06-26T20:57:14.221Z,99201.54
2019-06-26T20:59:42.707Z,99198.77
2019-06-26T21:02:11.213Z,99201.61
2019-06-26T21:04:39.851Z,99210.63
2019-06-26T21:07:08.347Z,99216.45
2019-06-26T21:09:36.838Z,99218.45
2019-06-26T21:12:05.410Z,99215.20
2019-06-26T21:14:33.887Z,99213.34
2019-06-26T21:17:02.426Z,99225.59
2019-06-26T21:19:30.946Z,99229.55
2019-06-26T21:21:59.447Z,99230.83
2019-06-26T21:24:27.921Z,99235.03
2019-06-26T21:26:56.416Z,99238.13
2019-06-26T21:29:24.895Z,99237.40
2019-06-26T21:31:53.393Z,99240.74
2019-06-26T21:34:21.868Z,99238.91
2019-06-26T21:36:50.366Z,99232.23
2019-06-26T21:39:18.844Z,99237.70
2019-06-26T21:41:47.356Z,99232.16
2019-06-26T21:44:15.823Z,99242.47
2019-06-26T21:46:44.327Z,99237.96
2019-06-26T21:49:12.851Z,99241.13
2019-06-26T21:51:41.300Z,99245.03
2019-06-26T21:54:09.782Z,99242.08
2019-06-26T21:56:38.308Z,99252.47
2019-06-26T21:59:06.831Z,99244.23
2019-06-26T22:01:35.415Z,99244.96
2019-06-26T22:04:04.677Z,99246.08
2019-06-26T22:06:33.158Z,99248.31
2019-06-26T22:09:01.643Z,99252.56
2019-06-26T22:11:30.202Z,99257.00
2019-06-26T22:13:58.679Z,99255.95
2019-06-26T22:16:27.175Z,99257.46
2019-06-26T22:18:55.662Z,99258.55
2019-06-26T22:21:24.165Z,99264.18
2019-06-26T22:23:52.647Z,99268.55
2019-06-26T22:26:21.150Z,99265.50
2019-06-26T22:28:49.692Z,99267.44
2019-06-26T22:31:18.203Z,99262.59
2019-06-26T22:33:46.688Z,99269.66
2019-06-26T22:36:15.166Z,99269.39
2019-06-26T22:38:43.677Z,99275.41
2019-06-26T22:41:12.165Z,99272.76
2019-06-26T22:43:40.672Z,99270.92
2019-06-26T22:46:09.151Z,99275.44
2019-06-26T22:48:37.655Z,99278.30
2019-06-26T22:51:06.142Z,99274.91
2019-06-26T22:53:34.645Z,99269.24
2019-06-26T22:56:07.983Z,99278.23
2019-06-26T22:58:33.795Z,99278.88
2019-06-26T23:01:02.405Z,99279.94
2019-06-26T23:03:30.973Z,99278.28
2019-06-26T23:05:59.458Z,99280.10
2019-06-26T23:08:27.962Z,99289.59
2019-06-26T23:10:56.449Z,99283.72
2019-06-26T23:13:24.955Z,99289.00
2019-06-26T23:15:53.430Z,99288.95
2019-06-26T23:18:21.938Z,99297.42
2019-06-26T23:20:50.413Z,99295.53
2019-06-26T23:23:18.918Z,99295.29
2019-06-26T23:25:47.399Z,99294.77
2019-06-26T23:28:15.905Z,99299.84
2019-06-26T23:30:44.388Z,99300.72
2019-06-26T23:33:12.877Z,99301.36
2019-06-26T23:35:41.352Z,99309.09
2019-06-26T23:38:09.860Z,99305.54
2019-06-26T23:40:38.332Z,99304.92
2019-06-26T23:43:06.833Z,99314.72
2019-06-26T23:45:35.311Z,99311.65
2019-06-26T23:48:03.975Z,99313.44
2019-06-26T23:50:32.433Z,99317.14
2019-06-26T23:53:00.944Z,99320.09
2019-06-26T23:55:29.417Z,99312.12
2019-06-26T23:57:59.624Z,99310.78
